Time;durP1;ratioP1;P1;durP2;ratioP2;P2;SDS_P1;SDS_P2;PMS_P1;PMS_P2;Temp;Humidity;BMP_temperature;BMP_pressure;BME280_temperature;BME280_humidity;BME280_pressure;Samples;Min_cycle;Max_cycle;Signal;HPM_P1;HPM_P2
2021/01/29 00:02:11;;;;;;;1.10;0.90;;;11.60;99.90;;;;;;5060185;28;20207;-52
2021/01/29 00:04:39;;;;;;;1.50;0.80;;;11.60;99.90;;;;;;5061446;28;20665;-54
2021/01/29 00:07:07;;;;;;;1.75;0.77;;;11.50;99.90;;;;;;5067266;28;20448;-53
2021/01/29 00:09:32;;;;;;;1.23;1.13;;;11.40;99.90;;;;;;5064578;28;20650;-54
2021/01/29 00:11:58;;;;;;;5.40;1.20;;;11.60;99.90;;;;;;5070403;28;20235;-53
2021/01/29 00:14:23;;;;;;;1.33;0.87;;;11.40;99.90;;;;;;5064568;28;20224;-53
2021/01/29 00:16:49;;;;;;;0.83;0.83;;;11.50;99.90;;;;;;5063823;28;20190;-54
2021/01/29 00:19:14;;;;;;;1.00;0.90;;;11.40;99.90;;;;;;5066394;28;20190;-54
2021/01/29 00:21:40;;;;;;;1.37;0.90;;;11.30;99.90;;;;;;5073897;28;20194;-53
2021/01/29 00:24:06;;;;;;;0.70;0.70;;;11.30;99.90;;;;;;5066124;28;20216;-53
2021/01/29 00:26:32;;;;;;;0.77;0.77;;;11.30;99.90;;;;;;5067691;28;20599;-53
2021/01/29 00:28:57;;;;;;;1.30;0.80;;;11.30;99.90;;;;;;5068084;28;20677;-54
2021/01/29 00:31:23;;;;;;;1.10;0.90;;;11.30;99.90;;;;;;5071591;28;20189;-53
2021/01/29 00:33:49;;;;;;;0.80;0.80;;;11.00;99.90;;;;;;5069062;28;20201;-53
2021/01/29 00:36:14;;;;;;;0.93;0.60;;;11.00;99.90;;;;;;5066121;28;20188;-54
2021/01/29 00:38:40;;;;;;;0.90;0.80;;;10.90;99.90;;;;;;5066522;28;20197;-54
2021/01/29 00:41:06;;;;;;;0.70;0.60;;;10.70;99.90;;;;;;5069740;28;20186;-53
2021/01/29 00:43:31;;;;;;;0.90;0.80;;;11.00;99.90;;;;;;5051325;28;20288;-53
2021/01/29 00:45:57;;;;;;;1.00;0.90;;;11.10;99.90;;;;;;5068833;28;20698;-53
2021/01/29 00:48:23;;;;;;;0.70;0.70;;;10.80;99.90;;;;;;5070032;28;20193;-54
2021/01/29 00:50:49;;;;;;;0.80;0.65;;;10.90;99.90;;;;;;5069488;28;20185;-53
2021/01/29 00:53:18;;;;;;;0.70;0.60;;;10.90;99.90;;;;;;5069632;28;20575;-52
2021/01/29 00:55:43;;;;;;;0.80;0.80;;;11.00;99.90;;;;;;5063431;28;20277;-53
2021/01/29 00:58:09;;;;;;;0.90;0.90;;;10.70;99.90;;;;;;5069591;28;20276;-53
2021/01/29 01:00:35;;;;;;;0.80;0.70;;;11.10;99.90;;;;;;5069617;28;20194;-53
2021/01/29 01:03:00;;;;;;;1.43;1.10;;;10.70;99.90;;;;;;5067996;28;20194;-53
2021/01/29 01:05:27;;;;;;;1.20;0.80;;;10.80;99.90;;;;;;5064779;28;20491;-53
2021/01/29 01:07:54;;;;;;;1.40;0.93;;;10.90;99.90;;;;;;5056709;28;20217;-53
2021/01/29 01:10:20;;;;;;;1.15;1.00;;;10.90;99.90;;;;;;5053199;28;20178;-53
2021/01/29 01:12:46;;;;;;;1.20;1.10;;;10.90;99.90;;;;;;5064199;28;20638;-53
2021/01/29 01:15:22;;;;;;;1.20;1.10;;;11.00;99.90;;;;;;5066816;28;20482;-54
2021/01/29 01:17:51;;;;;;;3.75;1.30;;;11.00;99.90;;;;;;5068360;28;20217;-54
2021/01/29 01:20:19;;;;;;;2.85;0.90;;;11.10;99.90;;;;;;5063425;28;20220;-54
2021/01/29 01:22:45;;;;;;;1.13;1.02;;;11.00;99.90;;;;;;5070711;28;20289;-54
2021/01/29 01:25:12;;;;;;;1.10;1.00;;;11.00;99.90;;;;;;5067544;28;20280;-54
2021/01/29 01:27:37;;;;;;;2.45;1.00;;;11.00;99.90;;;;;;5071408;28;20455;-53
2021/01/29 01:30:05;;;;;;;2.80;1.10;;;11.00;99.90;;;;;;5068338;28;20278;-52
2021/01/29 01:32:31;;;;;;;1.50;1.20;;;10.90;99.90;;;;;;5071677;28;20475;-54
2021/01/29 01:34:57;;;;;;;0.90;0.90;;;10.80;99.90;;;;;;5065212;28;20202;-53
2021/01/29 01:37:25;;;;;;;0.93;0.93;;;10.70;99.90;;;;;;5065793;28;20261;-53
2021/01/29 01:39:51;;;;;;;1.50;1.23;;;11.00;99.90;;;;;;5072985;28;20189;-54
2021/01/29 01:42:17;;;;;;;1.83;1.10;;;10.80;99.90;;;;;;5077322;28;20190;-53
2021/01/29 01:44:44;;;;;;;0.90;0.90;;;10.90;99.90;;;;;;5067546;28;20209;-54
2021/01/29 01:47:24;;;;;;;1.10;1.00;;;11.00;99.90;;;;;;5061263;28;20220;-53
2021/01/29 01:49:54;;;;;;;1.00;0.90;;;10.90;99.90;;;;;;5068498;28;20190;-53
2021/01/29 01:52:19;;;;;;;0.95;0.90;;;10.80;99.90;;;;;;5068833;28;20181;-54
2021/01/29 01:54:51;;;;;;;1.20;1.10;;;11.00;99.90;;;;;;5061544;28;20295;-54
2021/01/29 01:57:19;;;;;;;1.10;1.00;;;10.80;99.90;;;;;;5071664;28;20196;-54
2021/01/29 01:59:50;;;;;;;1.13;1.02;;;11.00;99.90;;;;;;5057331;28;20718;-54
2021/01/29 02:02:21;;;;;;;1.20;1.10;;;11.10;99.90;;;;;;5050715;28;20197;-52
2021/01/29 02:04:48;;;;;;;0.95;0.80;;;10.90;99.90;;;;;;5064068;28;20210;-53
2021/01/29 02:07:25;;;;;;;2.25;1.23;;;11.10;99.90;;;;;;5067418;28;20292;-53
2021/01/29 02:09:51;;;;;;;1.10;1.00;;;11.10;99.90;;;;;;5082773;28;20196;-54
2021/01/29 02:12:18;;;;;;;0.90;0.80;;;11.10;99.90;;;;;;5080227;28;20191;-52
2021/01/29 02:14:45;;;;;;;1.25;0.90;;;10.70;99.90;;;;;;5065478;28;20194;-54
2021/01/29 02:17:10;;;;;;;1.00;0.80;;;10.70;99.90;;;;;;5068715;28;20185;-53
2021/01/29 02:20:03;;;;;;;1.30;1.10;;;10.90;99.90;;;;;;5060688;28;20641;-53
2021/01/29 02:22:38;;;;;;;0.80;0.77;;;10.80;99.90;;;;;;5069262;28;20190;-53
2021/01/29 02:25:57;;;;;;;1.27;0.90;;;10.90;99.90;;;;;;5049029;28;20230;-54
2021/01/29 02:28:28;;;;;;;1.00;0.90;;;10.60;99.90;;;;;;5059277;28;20222;-53
2021/01/29 02:31:35;;;;;;;1.10;0.90;;;10.40;99.90;;;;;;5069180;28;20671;-54
2021/01/29 02:34:30;;;;;;;1.00;0.80;;;10.60;99.90;;;;;;5065955;28;20212;-53
2021/01/29 02:37:07;;;;;;;0.82;0.70;;;10.60;99.90;;;;;;5062259;28;20199;-54
2021/01/29 02:39:56;;;;;;;0.80;0.80;;;10.70;99.90;;;;;;5056450;28;20177;-54
2021/01/29 02:42:25;;;;;;;0.70;0.70;;;10.90;99.90;;;;;;5084607;28;20192;-53
2021/01/29 02:45:17;;;;;;;0.90;0.70;;;10.70;99.90;;;;;;5068584;28;20205;-54
2021/01/29 02:48:18;;;;;;;1.98;0.70;;;10.70;99.90;;;;;;5067009;28;20204;-54
2021/01/29 02:50:59;;;;;;;0.68;0.60;;;10.80;99.90;;;;;;5067437;28;20598;-53
2021/01/29 02:53:45;;;;;;;0.80;0.60;;;10.30;99.90;;;;;;5056019;28;20206;-54
2021/01/29 02:56:32;;;;;;;1.17;0.80;;;10.50;99.90;;;;;;5066532;28;20214;-53
2021/01/29 02:59:16;;;;;;;0.90;0.60;;;10.80;99.90;;;;;;5062904;28;20652;-54
2021/01/29 03:01:57;;;;;;;0.73;0.73;;;10.90;99.90;;;;;;5055063;28;20285;-53
2021/01/29 03:04:54;;;;;;;1.88;0.65;;;10.70;99.90;;;;;;5054025;28;20210;-54
2021/01/29 03:07:25;;;;;;;3.05;0.73;;;10.80;99.90;;;;;;5057083;28;20249;-53
2021/01/29 03:10:00;;;;;;;1.30;0.70;;;10.90;99.90;;;;;;5071492;28;20180;-54
2021/01/29 03:12:38;;;;;;;0.70;0.55;;;10.60;99.90;;;;;;5077285;28;20193;-53
2021/01/29 03:15:16;;;;;;;0.75;0.70;;;10.80;99.90;;;;;;5078609;28;20219;-53
2021/01/29 03:17:59;;;;;;;0.80;0.60;;;10.90;99.90;;;;;;5067538;28;20210;-52
2021/01/29 03:20:28;;;;;;;0.70;0.60;;;10.80;99.90;;;;;;5067475;28;20189;-52
2021/01/29 03:23:10;;;;;;;0.70;0.57;;;10.70;99.90;;;;;;5067546;28;20200;-53
2021/01/29 03:25:42;;;;;;;0.82;0.70;;;10.90;99.90;;;;;;5050799;28;20193;-54
2021/01/29 03:28:24;;;;;;;0.60;0.50;;;10.70;99.90;;;;;;5065270;28;20646;-54
2021/01/29 03:30:53;;;;;;;1.17;0.60;;;10.80;99.90;;;;;;5062296;28;20196;-53
2021/01/29 03:33:24;;;;;;;0.95;0.63;;;10.80;99.90;;;;;;5063003;28;20206;-53
2021/01/29 03:35:58;;;;;;;0.63;0.57;;;10.80;99.90;;;;;;5069606;28;20189;-54
2021/01/29 03:38:42;;;;;;;0.80;0.80;;;11.10;99.90;;;;;;5067757;28;20306;-53
2021/01/29 03:41:23;;;;;;;3.78;0.70;;;10.80;99.90;;;;;;5061154;28;20177;-53
2021/01/29 03:44:00;;;;;;;0.70;0.60;;;11.00;99.90;;;;;;5073703;28;20211;-53
2021/01/29 03:46:57;;;;;;;0.88;0.80;;;10.80;99.90;;;;;;5067633;28;20181;-53
2021/01/29 03:49:41;;;;;;;1.88;0.70;;;11.00;99.90;;;;;;5077048;28;20189;-54
2021/01/29 03:52:35;;;;;;;0.70;0.70;;;11.10;99.90;;;;;;5079419;28;20181;-54
2021/01/29 03:55:17;;;;;;;0.70;0.60;;;10.90;99.90;;;;;;5057190;28;20203;-53
2021/01/29 03:58:01;;;;;;;0.80;0.68;;;11.10;99.90;;;;;;5074045;28;20210;-53
2021/01/29 04:00:42;;;;;;;1.80;0.63;;;11.00;99.90;;;;;;5091111;28;20188;-53
2021/01/29 04:03:23;;;;;;;1.65;0.55;;;11.00;99.90;;;;;;5072534;28;20206;-52
2021/01/29 04:05:56;;;;;;;1.25;0.60;;;10.80;99.90;;;;;;5068583;28;20231;-52
2021/01/29 04:08:34;;;;;;;1.30;0.60;;;11.10;99.90;;;;;;5070489;28;20236;-52
2021/01/29 04:11:01;;;;;;;0.60;0.50;;;11.00;99.90;;;;;;5076417;28;20180;-52
2021/01/29 04:13:39;;;;;;;0.82;0.70;;;10.80;99.90;;;;;;5066684;28;20220;-52
2021/01/29 04:16:11;;;;;;;0.70;0.65;;;10.90;99.90;;;;;;5054847;28;20228;-52
2021/01/29 04:18:55;;;;;;;0.60;0.50;;;10.80;99.90;;;;;;5056981;28;20204;-52
2021/01/29 04:21:53;;;;;;;0.60;0.60;;;10.70;99.90;;;;;;5060042;28;20193;-53
2021/01/29 04:24:25;;;;;;;1.10;0.60;;;10.70;99.90;;;;;;5068770;28;20205;-53
2021/01/29 04:27:09;;;;;;;0.60;0.50;;;11.00;99.90;;;;;;5070378;28;20188;-52
2021/01/29 04:30:10;;;;;;;1.45;0.60;;;10.70;99.90;;;;;;5069257;28;20213;-53
2021/01/29 04:32:45;;;;;;;0.60;0.52;;;10.80;99.90;;;;;;5071326;28;20189;-53
2021/01/29 04:35:13;;;;;;;0.63;0.50;;;10.80;99.90;;;;;;5067740;28;20939;-55
2021/01/29 04:37:49;;;;;;;0.60;0.50;;;10.70;99.90;;;;;;5070434;28;20197;-52
2021/01/29 04:40:46;;;;;;;0.60;0.50;;;10.70;99.90;;;;;;5064999;28;20188;-53
2021/01/29 04:43:29;;;;;;;0.80;0.63;;;10.70;99.90;;;;;;5061487;28;20239;-52
2021/01/29 04:46:07;;;;;;;0.68;0.52;;;10.70;99.90;;;;;;5067122;28;20328;-52
2021/01/29 04:49:02;;;;;;;0.98;0.60;;;11.00;99.90;;;;;;5070052;28;20250;-52
2021/01/29 04:52:16;;;;;;;0.70;0.60;;;10.60;99.90;;;;;;5068329;28;20213;-52
2021/01/29 04:55:23;;;;;;;0.90;0.50;;;10.80;99.90;;;;;;5058812;28;20548;-53
2021/01/29 04:58:07;;;;;;;0.70;0.60;;;10.60;99.90;;;;;;5048967;28;20284;-54
2021/01/29 05:01:02;;;;;;;1.48;0.60;;;10.60;99.90;;;;;;5077185;28;20184;-53
2021/01/29 05:03:36;;;;;;;0.85;0.70;;;10.80;99.90;;;;;;5074144;28;20686;-53
2021/01/29 05:06:29;;;;;;;0.70;0.57;;;10.60;99.90;;;;;;5067091;28;20253;-54
2021/01/29 05:09:33;;;;;;;0.70;0.60;;;10.50;99.90;;;;;;5068093;28;20247;-53
2021/01/29 05:12:31;;;;;;;0.70;0.60;;;10.50;99.90;;;;;;5069876;28;20495;-54
2021/01/29 05:15:06;;;;;;;0.60;0.50;;;10.40;99.90;;;;;;5069259;28;20658;-54
2021/01/29 05:18:04;;;;;;;2.67;0.65;;;10.50;99.90;;;;;;5069905;28;20188;-54
2021/01/29 05:20:46;;;;;;;0.63;0.50;;;10.50;99.90;;;;;;5052382;28;20211;-54
2021/01/29 05:23:23;;;;;;;1.35;0.57;;;10.50;99.90;;;;;;5056867;28;20699;-56
2021/01/29 05:26:29;;;;;;;1.15;0.60;;;10.40;99.90;;;;;;5081233;28;20283;-54
2021/01/29 05:29:16;;;;;;;1.05;0.52;;;10.50;99.90;;;;;;5074913;28;20209;-54
2021/01/29 05:31:51;;;;;;;1.95;0.43;;;10.40;99.90;;;;;;5068149;28;20250;-54
2021/01/29 05:34:43;;;;;;;0.90;0.70;;;10.50;99.90;;;;;;5068403;28;20693;-54
2021/01/29 05:37:41;;;;;;;1.30;0.60;;;10.40;99.90;;;;;;5068886;28;20583;-60
2021/01/29 05:40:32;;;;;;;1.13;0.50;;;10.40;99.90;;;;;;5052304;28;20276;-54
2021/01/29 05:43:25;;;;;;;0.65;0.55;;;10.50;99.90;;;;;;5065285;28;20272;-53
2021/01/29 05:46:14;;;;;;;0.60;0.47;;;10.20;99.90;;;;;;5065366;28;20185;-54
2021/01/29 05:49:18;;;;;;;1.50;0.80;;;10.40;99.90;;;;;;5063476;28;20714;-54
2021/01/29 05:52:09;;;;;;;1.33;0.50;;;10.10;99.90;;;;;;5063128;28;20309;-54
2021/01/29 05:54:43;;;;;;;0.95;0.70;;;10.30;99.90;;;;;;5063531;28;20374;-54
2021/01/29 05:57:31;;;;;;;1.52;0.68;;;10.30;99.90;;;;;;5066582;28;20647;-53
2021/01/29 06:00:10;;;;;;;1.67;0.50;;;10.00;99.90;;;;;;5068193;28;20189;-52
2021/01/29 06:02:42;;;;;;;0.88;0.88;;;10.00;99.90;;;;;;5067613;28;20216;-53
2021/01/29 06:05:31;;;;;;;0.70;0.50;;;10.20;99.90;;;;;;5062231;28;20254;-56
2021/01/29 06:08:34;;;;;;;0.70;0.50;;;9.90;99.90;;;;;;5062966;28;20606;-54
2021/01/29 06:11:03;;;;;;;0.60;0.50;;;9.90;99.90;;;;;;5066759;28;20177;-54
2021/01/29 06:13:55;;;;;;;1.33;0.60;;;9.80;99.90;;;;;;5067841;28;20698;-53
2021/01/29 06:16:31;;;;;;;0.60;0.40;;;9.80;99.90;;;;;;5057072;28;20219;-53
2021/01/29 06:18:56;;;;;;;1.05;0.70;;;9.90;99.90;;;;;;5055633;28;20724;-53
2021/01/29 06:21:51;;;;;;;0.83;0.73;;;10.00;99.90;;;;;;5060127;28;20189;-54
2021/01/29 06:24:48;;;;;;;1.60;0.70;;;10.10;99.90;;;;;;5056353;28;20222;-53
2021/01/29 06:27:14;;;;;;;1.00;0.70;;;10.20;99.90;;;;;;5059310;28;20185;-53
2021/01/29 06:29:57;;;;;;;1.70;1.10;;;10.00;99.90;;;;;;5057304;28;20182;-54
2021/01/29 06:32:48;;;;;;;1.10;0.70;;;9.90;99.90;;;;;;5056157;28;20178;-54
2021/01/29 06:35:20;;;;;;;1.38;0.88;;;9.90;99.90;;;;;;5063988;28;20181;-54
2021/01/29 06:38:10;;;;;;;0.90;0.80;;;10.00;99.90;;;;;;5063030;28;20185;-53
2021/01/29 06:40:51;;;;;;;0.70;0.60;;;10.10;99.90;;;;;;5065245;28;20192;-53
2021/01/29 06:43:41;;;;;;;1.73;0.70;;;9.90;99.90;;;;;;5066393;28;20217;-53
2021/01/29 06:46:48;;;;;;;1.02;0.60;;;9.80;99.90;;;;;;5067782;28;20203;-54
2021/01/29 06:49:36;;;;;;;2.25;0.57;;;9.90;99.90;;;;;;5058374;28;20307;-54
2021/01/29 06:52:41;;;;;;;0.80;0.60;;;10.00;99.90;;;;;;5072531;28;20250;-54
2021/01/29 06:55:44;;;;;;;1.30;0.90;;;10.30;99.90;;;;;;5065313;28;20207;-53
2021/01/29 06:58:09;;;;;;;0.75;0.60;;;10.00;99.90;;;;;;5069839;28;20554;-53
2021/01/29 07:00:43;;;;;;;0.80;0.70;;;10.00;99.90;;;;;;5062270;28;20185;-53
2021/01/29 07:03:21;;;;;;;1.00;0.80;;;10.10;99.90;;;;;;5061810;28;20686;-52
2021/01/29 07:06:18;;;;;;;1.50;1.30;;;10.10;99.90;;;;;;5063851;28;20200;-52
2021/01/29 07:08:56;;;;;;;0.88;0.73;;;10.20;99.90;;;;;;5060004;28;20656;-53
2021/01/29 07:11:54;;;;;;;0.93;0.82;;;10.10;99.90;;;;;;5059764;28;20660;-53
2021/01/29 07:14:35;;;;;;;0.90;0.65;;;10.40;99.90;;;;;;5055803;28;20704;-53
2021/01/29 07:17:17;;;;;;;0.95;0.85;;;10.00;99.90;;;;;;5062800;28;20403;-53
2021/01/29 07:20:08;;;;;;;0.60;0.50;;;10.10;99.90;;;;;;5062508;28;20523;-54
2021/01/29 07:23:20;;;;;;;1.60;0.60;;;10.20;99.90;;;;;;5063629;28;20189;-53
2021/01/29 07:25:49;;;;;;;0.90;0.70;;;9.80;99.90;;;;;;5075064;28;20263;-53
2021/01/29 07:28:40;;;;;;;1.50;0.88;;;10.50;99.90;;;;;;5060493;28;20683;-54
2021/01/29 07:31:36;;;;;;;1.42;0.50;;;10.30;99.90;;;;;;5061348;28;20250;-54
2021/01/29 07:34:24;;;;;;;1.55;0.77;;;10.40;99.90;;;;;;5057380;28;20206;-53
2021/01/29 07:36:49;;;;;;;0.70;0.70;;;10.50;99.90;;;;;;5066551;28;20208;-54
2021/01/29 07:39:46;;;;;;;0.90;0.80;;;10.80;99.90;;;;;;5064889;28;20217;-54
2021/01/29 07:42:51;;;;;;;2.13;1.20;;;10.60;99.90;;;;;;5060948;28;20193;-54
2021/01/29 07:45:59;;;;;;;1.60;0.60;;;10.70;99.90;;;;;;5069828;28;20184;-54
2021/01/29 07:48:55;;;;;;;1.13;0.70;;;10.90;99.90;;;;;;5066800;28;20256;-54
2021/01/29 07:51:39;;;;;;;1.55;0.70;;;10.60;99.90;;;;;;5065878;28;20185;-54
2021/01/29 07:54:42;;;;;;;0.90;0.70;;;10.80;99.90;;;;;;5066917;28;20235;-55
2021/01/29 07:57:30;;;;;;;1.48;0.57;;;10.90;99.90;;;;;;5063327;28;20179;-54
2021/01/29 08:00:25;;;;;;;0.70;0.60;;;10.80;99.90;;;;;;5073930;28;20270;-55
2021/01/29 08:03:30;;;;;;;1.20;0.70;;;10.80;99.90;;;;;;5065222;28;20335;-54
2021/01/29 08:06:21;;;;;;;1.45;0.75;;;10.90;99.90;;;;;;5083142;28;20244;-53
2021/01/29 08:08:54;;;;;;;0.70;0.50;;;11.20;99.90;;;;;;5068281;28;20198;-55
2021/01/29 08:11:20;;;;;;;0.60;0.50;;;11.10;99.90;;;;;;5071048;28;20287;-54
2021/01/29 08:13:59;;;;;;;0.70;0.65;;;11.30;99.90;;;;;;5073379;28;20214;-55
2021/01/29 08:16:24;;;;;;;0.80;0.60;;;11.20;99.90;;;;;;5054011;28;20177;-53
2021/01/29 08:19:06;;;;;;;1.00;0.60;;;11.20;99.90;;;;;;5071005;28;20533;-53
2021/01/29 08:22:18;;;;;;;0.90;0.63;;;11.10;99.90;;;;;;5064929;28;20496;-53
2021/01/29 08:24:58;;;;;;;0.70;0.63;;;11.30;99.90;;;;;;5059946;28;20254;-54
2021/01/29 08:28:09;;;;;;;0.70;0.50;;;11.30;99.90;;;;;;5070741;28;20322;-54
2021/01/29 08:30:50;;;;;;;0.88;0.60;;;11.40;99.90;;;;;;5052140;28;20295;-54
2021/01/29 08:33:42;;;;;;;0.65;0.50;;;11.50;99.90;;;;;;5056273;28;20671;-54
2021/01/29 08:36:25;;;;;;;1.40;0.60;;;11.50;99.90;;;;;;5069772;28;20211;-54
2021/01/29 08:39:17;;;;;;;0.77;0.60;;;11.20;99.90;;;;;;5064030;28;20333;-53
2021/01/29 08:41:53;;;;;;;0.90;0.60;;;11.40;99.90;;;;;;5065871;28;20192;-54
2021/01/29 08:44:35;;;;;;;1.02;0.70;;;11.60;99.90;;;;;;5063845;28;20257;-54
2021/01/29 08:47:22;;;;;;;1.20;0.90;;;11.50;99.90;;;;;;5056916;28;20695;-54
2021/01/29 08:50:03;;;;;;;1.48;1.38;;;11.70;99.90;;;;;;5066502;28;20287;-54
2021/01/29 08:52:32;;;;;;;1.50;0.80;;;11.70;99.90;;;;;;5070824;28;20188;-54
2021/01/29 08:55:20;;;;;;;1.73;0.80;;;11.50;99.90;;;;;;5063536;28;20732;-53
2021/01/29 08:58:29;;;;;;;0.95;0.80;;;11.50;99.90;;;;;;5066690;28;20184;-54
2021/01/29 09:01:05;;;;;;;1.50;0.80;;;11.60;99.90;;;;;;5055672;28;20193;-54
2021/01/29 09:03:39;;;;;;;2.13;0.70;;;11.50;99.90;;;;;;5063900;28;20225;-53
2021/01/29 09:06:22;;;;;;;0.98;0.90;;;11.30;99.90;;;;;;5065175;28;20184;-53
2021/01/29 09:08:59;;;;;;;1.58;0.70;;;11.20;99.90;;;;;;5076594;28;20557;-53
2021/01/29 09:11:54;;;;;;;1.25;0.75;;;11.20;99.90;;;;;;5064263;28;20653;-54
2021/01/29 09:14:40;;;;;;;0.80;0.80;;;11.40;99.90;;;;;;5070267;28;20707;-53
2021/01/29 09:17:13;;;;;;;3.20;0.98;;;11.50;99.90;;;;;;5069758;28;20196;-53
2021/01/29 09:19:43;;;;;;;1.00;0.70;;;11.70;99.90;;;;;;5062058;28;20302;-53
2021/01/29 09:22:49;;;;;;;0.90;0.60;;;11.50;99.90;;;;;;5064136;28;20187;-54
2021/01/29 09:25:23;;;;;;;0.70;0.70;;;11.90;99.90;;;;;;5059747;28;20192;-54
2021/01/29 09:27:52;;;;;;;0.70;0.70;;;11.70;99.90;;;;;;5066369;28;20589;-54
2021/01/29 09:30:41;;;;;;;0.90;0.68;;;12.00;99.90;;;;;;5069475;28;20643;-54
2021/01/29 09:33:37;;;;;;;1.13;0.80;;;12.10;99.90;;;;;;5075326;28;20212;-54
2021/01/29 09:36:15;;;;;;;1.42;0.90;;;12.70;99.90;;;;;;5067043;28;20223;-54
2021/01/29 09:39:07;;;;;;;1.50;0.77;;;12.90;99.90;;;;;;5063290;28;20185;-54
2021/01/29 09:41:42;;;;;;;1.88;1.00;;;13.60;99.90;;;;;;5064340;28;20199;-54
2021/01/29 09:44:14;;;;;;;1.40;0.70;;;13.50;98.80;;;;;;5070168;28;20204;-54
2021/01/29 09:46:43;;;;;;;1.80;0.80;;;13.80;97.90;;;;;;5063265;28;20238;-53
2021/01/29 09:49:21;;;;;;;1.73;0.98;;;13.40;97.40;;;;;;5054151;28;20209;-54
2021/01/29 09:52:19;;;;;;;3.05;1.00;;;13.10;97.60;;;;;;5067110;28;20255;-54
2021/01/29 09:54:58;;;;;;;1.80;0.70;;;13.60;97.80;;;;;;5071938;28;20260;-53
2021/01/29 09:57:26;;;;;;;2.08;0.80;;;13.60;96.80;;;;;;5065938;28;20194;-54
2021/01/29 10:00:02;;;;;;;3.38;1.73;;;13.80;96.10;;;;;;5067830;28;20193;-54
2021/01/29 10:03:09;;;;;;;1.83;1.05;;;14.20;95.00;;;;;;5068505;28;20188;-54
2021/01/29 10:05:55;;;;;;;1.80;0.88;;;14.70;94.30;;;;;;5062947;28;20329;-53
2021/01/29 10:08:39;;;;;;;1.35;1.00;;;14.40;93.50;;;;;;5065746;28;20250;-53
2021/01/29 10:11:17;;;;;;;1.55;0.90;;;14.20;93.10;;;;;;5065735;28;20212;-53
2021/01/29 10:13:56;;;;;;;1.67;0.90;;;14.30;93.40;;;;;;5066341;28;20299;-55
2021/01/29 10:16:24;;;;;;;2.15;1.60;;;14.10;93.10;;;;;;5066745;28;20220;-53
2021/01/29 10:19:16;;;;;;;2.00;1.30;;;14.10;94.00;;;;;;5063957;28;20189;-54
2021/01/29 10:21:57;;;;;;;2.00;1.10;;;13.90;94.20;;;;;;5069932;28;20216;-55
2021/01/29 10:24:46;;;;;;;2.70;1.10;;;13.40;94.10;;;;;;5073217;28;20200;-54
2021/01/29 10:27:21;;;;;;;2.88;1.45;;;13.00;94.20;;;;;;5050002;28;20192;-53
2021/01/29 10:29:57;;;;;;;1.83;0.85;;;12.90;94.50;;;;;;5055660;28;20180;-54
2021/01/29 10:32:29;;;;;;;4.10;1.10;;;12.60;94.70;;;;;;5067854;28;20182;-55
2021/01/29 10:35:01;;;;;;;1.38;1.08;;;12.70;95.10;;;;;;5060611;28;20217;-54
2021/01/29 10:37:36;;;;;;;3.88;1.20;;;13.30;94.10;;;;;;5071631;28;20651;-53
2021/01/29 10:40:23;;;;;;;3.22;1.00;;;13.30;93.80;;;;;;5051922;28;20694;-53
2021/01/29 10:43:18;;;;;;;3.35;1.17;;;13.50;93.30;;;;;;5060662;28;20596;-54
2021/01/29 10:46:02;;;;;;;2.10;1.10;;;13.80;92.60;;;;;;5052637;28;20178;-54
2021/01/29 10:48:47;;;;;;;0.90;0.80;;;13.90;92.10;;;;;;5067310;28;20208;-54
2021/01/29 10:51:30;;;;;;;3.15;1.50;;;13.70;92.10;;;;;;5057752;28;20247;-53
2021/01/29 10:54:01;;;;;;;3.10;1.80;;;14.20;91.60;;;;;;5058094;28;20722;-54
2021/01/29 10:56:39;;;;;;;1.40;1.13;;;14.50;90.70;;;;;;5058789;28;20292;-54
2021/01/29 10:59:49;;;;;;;2.65;1.35;;;14.70;90.50;;;;;;5064526;28;20177;-53
2021/01/29 11:02:35;;;;;;;2.00;1.33;;;15.20;89.90;;;;;;5054261;28;20197;-53
2021/01/29 11:05:07;;;;;;;4.60;1.40;;;15.30;88.10;;;;;;5067150;28;20262;-53
2021/01/29 11:07:36;;;;;;;2.40;1.25;;;15.20;89.10;;;;;;5063741;28;20200;-52
2021/01/29 11:10:19;;;;;;;3.83;1.50;;;15.30;89.10;;;;;;5063569;28;20218;-53
2021/01/29 11:12:56;;;;;;;3.78;1.90;;;14.80;89.60;;;;;;5063524;28;20192;-53
2021/01/29 11:15:50;;;;;;;1.40;1.10;;;14.50;90.90;;;;;;5058341;28;20184;-53
2021/01/29 11:18:27;;;;;;;3.20;1.27;;;13.90;90.80;;;;;;5064321;28;20216;-53
2021/01/29 11:21:03;;;;;;;3.55;1.45;;;13.40;91.90;;;;;;5066511;28;20207;-53
2021/01/29 11:23:49;;;;;;;5.63;1.45;;;13.30;92.20;;;;;;5061978;28;20204;-54
2021/01/29 11:26:32;;;;;;;1.95;1.13;;;13.40;92.50;;;;;;5066575;28;20191;-53
2021/01/29 11:29:16;;;;;;;2.95;1.50;;;13.10;93.50;;;;;;5060084;28;20631;-53
2021/01/29 11:31:45;;;;;;;3.50;1.45;;;13.00;93.30;;;;;;5057445;28;20189;-54
2021/01/29 11:34:32;;;;;;;2.30;1.20;;;12.80;93.60;;;;;;5064124;28;20199;-53
2021/01/29 11:36:57;;;;;;;4.97;1.42;;;13.00;94.10;;;;;;5057605;28;20794;-53
2021/01/29 11:39:35;;;;;;;1.90;1.10;;;12.50;94.10;;;;;;5059625;28;20183;-54
2021/01/29 11:42:28;;;;;;;4.75;2.08;;;12.90;94.40;;;;;;5064838;28;20228;-53
2021/01/29 11:45:09;;;;;;;2.67;1.15;;;12.90;94.40;;;;;;5063195;28;20296;-53
2021/01/29 11:48:09;;;;;;;4.22;1.25;;;12.80;94.30;;;;;;5062202;28;20214;-53
2021/01/29 11:51:01;;;;;;;2.70;1.40;;;12.40;94.30;;;;;;5074806;28;20671;-53
2021/01/29 11:54:18;;;;;;;2.60;1.30;;;12.60;94.90;;;;;;5054934;28;20215;-53
2021/01/29 11:57:11;;;;;;;4.22;1.20;;;12.70;94.40;;;;;;5041963;28;20211;-53
2021/01/29 12:00:22;;;;;;;3.72;1.30;;;12.80;94.30;;;;;;5064518;28;20462;-53
2021/01/29 12:03:12;;;;;;;3.78;0.90;;;13.20;94.70;;;;;;5056762;28;20259;-53
2021/01/29 12:05:56;;;;;;;2.55;1.10;;;12.90;93.80;;;;;;5050179;28;20185;-53
2021/01/29 12:08:25;;;;;;;2.50;1.10;;;13.00;93.70;;;;;;5055145;28;20623;-53
2021/01/29 12:11:05;;;;;;;2.63;1.10;;;13.10;93.70;;;;;;5056345;28;20195;-53
2021/01/29 12:13:33;;;;;;;3.17;1.00;;;13.10;93.60;;;;;;5050641;28;20741;-52
2021/01/29 12:16:08;;;;;;;1.35;1.23;;;13.20;93.70;;;;;;5051193;28;20589;-52
2021/01/29 12:18:36;;;;;;;5.53;1.38;;;13.20;94.00;;;;;;5057574;28;20181;-53
2021/01/29 12:21:25;;;;;;;1.30;1.20;;;13.00;93.30;;;;;;5065411;28;20253;-54
2021/01/29 12:24:30;;;;;;;3.10;1.15;;;12.60;92.50;;;;;;5044767;28;20222;-53
2021/01/29 12:27:08;;;;;;;3.60;2.15;;;13.10;92.50;;;;;;5072657;28;20286;-54
2021/01/29 12:29:49;;;;;;;3.17;1.65;;;12.80;92.40;;;;;;5084957;28;20234;-54
2021/01/29 12:32:40;;;;;;;1.85;1.05;;;12.70;92.40;;;;;;5081744;28;20229;-52
2021/01/29 12:35:15;;;;;;;3.05;1.48;;;13.00;92.10;;;;;;5084526;28;20212;-54
2021/01/29 12:38:18;;;;;;;2.88;1.10;;;13.10;92.40;;;;;;5068533;28;20200;-53
2021/01/29 12:40:57;;;;;;;3.38;1.70;;;13.00;92.40;;;;;;5067194;28;20223;-53
2021/01/29 12:43:28;;;;;;;2.88;1.20;;;13.00;92.30;;;;;;5083764;28;20223;-53
2021/01/29 12:46:02;;;;;;;4.85;1.25;;;12.80;92.50;;;;;;5085923;28;20226;-53
2021/01/29 12:48:37;;;;;;;3.20;1.40;;;13.00;93.20;;;;;;5056541;28;20192;-54
2021/01/29 12:51:22;;;;;;;1.63;0.85;;;12.80;93.20;;;;;;5068046;28;20194;-54
2021/01/29 12:54:09;;;;;;;3.72;1.17;;;12.80;93.60;;;;;;5071721;28;20207;-54
2021/01/29 12:56:38;;;;;;;3.53;1.77;;;12.60;93.70;;;;;;5063610;28;20645;-53
2021/01/29 12:59:07;;;;;;;3.63;1.88;;;12.60;94.20;;;;;;5068653;28;20553;-53
2021/01/29 13:01:35;;;;;;;2.50;1.17;;;12.80;94.50;;;;;;5063115;28;20230;-54
2021/01/29 13:04:16;;;;;;;3.03;1.65;;;12.80;94.10;;;;;;5066617;28;20711;-54
2021/01/29 13:07:04;;;;;;;2.78;1.10;;;12.80;93.30;;;;;;5079772;28;20191;-53
2021/01/29 13:09:42;;;;;;;4.45;0.93;;;12.70;93.70;;;;;;5058146;28;20229;-54
2021/01/29 13:12:33;;;;;;;7.57;1.73;;;12.80;93.60;;;;;;5076725;28;20212;-52
2021/01/29 13:15:31;;;;;;;2.95;0.90;;;12.70;94.40;;;;;;5038940;28;20220;-53
2021/01/29 13:18:24;;;;;;;1.17;0.90;;;12.80;94.60;;;;;;5077730;28;20202;-53
2021/01/29 13:20:56;;;;;;;1.27;0.98;;;12.80;94.40;;;;;;5058727;28;20601;-53
2021/01/29 13:23:39;;;;;;;6.07;3.00;;;12.50;94.40;;;;;;5057920;28;20197;-53
2021/01/29 13:26:05;;;;;;;1.52;0.80;;;12.60;94.70;;;;;;5061364;28;20593;-53
2021/01/29 13:28:33;;;;;;;2.20;1.10;;;12.30;94.90;;;;;;5064395;28;20197;-53
2021/01/29 13:31:32;;;;;;;1.92;0.65;;;12.30;95.60;;;;;;5066738;28;20208;-53
2021/01/29 13:34:01;;;;;;;1.38;1.05;;;12.30;95.70;;;;;;5068759;28;20199;-53
2021/01/29 13:36:31;;;;;;;1.60;0.85;;;12.10;96.00;;;;;;5057534;28;20192;-54
2021/01/29 13:39:21;;;;;;;1.65;0.70;;;12.20;96.20;;;;;;5069730;28;20206;-54
2021/01/29 13:42:12;;;;;;;1.05;0.77;;;12.40;96.00;;;;;;5066513;28;20192;-53
2021/01/29 13:44:53;;;;;;;0.80;0.60;;;12.10;96.00;;;;;;5068177;28;20303;-53
2021/01/29 13:47:26;;;;;;;0.88;0.70;;;12.10;96.00;;;;;;5068414;28;20238;-53
2021/01/29 13:49:52;;;;;;;2.25;0.80;;;12.20;96.30;;;;;;5068900;28;20190;-54
2021/01/29 13:52:24;;;;;;;2.13;1.10;;;12.30;96.40;;;;;;5069018;28;20198;-53
2021/01/29 13:54:50;;;;;;;1.20;0.90;;;12.10;96.50;;;;;;5065262;28;20207;-54
2021/01/29 13:57:50;;;;;;;3.00;0.90;;;12.20;96.50;;;;;;5067521;28;20202;-53
2021/01/29 14:00:21;;;;;;;1.42;0.95;;;12.30;96.70;;;;;;5081050;28;20670;-54